Time;durP1;ratioP1;P1;durP2;ratioP2;P2;SDS_P1;SDS_P2;PMS_P1;PMS_P2;Temp;Humidity;BMP_temperature;BMP_pressure;BME280_temperature;BME280_humidity;BME280_pressure;Samples;Min_cycle;Max_cycle;Signal;HPM_P1;HPM_P2
2022/06/02 00:00:30;;;;;;;0.65;0.65;;;8.00;99.90;;;;;;4976414;28;20046;-69
2022/06/02 00:03:21;;;;;;;0.70;0.70;;;8.10;99.90;;;;;;4969869;28;20062;-69
2022/06/02 00:05:51;;;;;;;0.73;0.73;;;7.90;99.90;;;;;;4977992;28;20050;-69
2022/06/02 00:09:13;;;;;;;0.50;0.50;;;7.90;99.90;;;;;;4998481;28;20061;-70
2022/06/02 00:12:05;;;;;;;0.50;0.50;;;7.90;99.90;;;;;;4952142;28;20092;-69
2022/06/02 00:14:54;;;;;;;0.40;0.40;;;7.90;99.90;;;;;;4981484;28;20042;-69
2022/06/02 00:17:30;;;;;;;0.40;0.40;;;7.90;99.90;;;;;;4978536;28;20113;-70
2022/06/02 00:20:26;;;;;;;1.50;1.40;;;7.80;99.90;;;;;;4961841;28;20094;-70
2022/06/02 00:23:24;;;;;;;0.50;0.50;;;7.80;99.90;;;;;;4975613;28;20061;-70
2022/06/02 00:26:07;;;;;;;0.63;0.63;;;7.80;99.90;;;;;;4962495;28;20051;-70
2022/06/02 00:29:02;;;;;;;0.40;0.40;;;7.80;99.90;;;;;;4978726;28;20460;-69
2022/06/02 00:31:30;;;;;;;0.50;0.50;;;7.80;99.90;;;;;;4963576;28;20053;-70
2022/06/02 00:34:06;;;;;;;1.45;0.93;;;7.90;99.90;;;;;;4981379;28;20097;-70
2022/06/02 00:36:40;;;;;;;0.65;0.65;;;7.80;99.90;;;;;;4980875;28;20061;-70
2022/06/02 00:39:08;;;;;;;0.50;0.50;;;7.80;99.90;;;;;;4980722;28;20035;-70
2022/06/02 00:42:00;;;;;;;0.52;0.52;;;7.70;99.90;;;;;;4980776;28;20046;-70
2022/06/02 00:44:38;;;;;;;0.50;0.50;;;7.70;99.90;;;;;;4997627;28;20046;-70
2022/06/02 00:47:28;;;;;;;0.40;0.40;;;7.70;99.90;;;;;;4979599;28;20050;-69
2022/06/02 00:50:06;;;;;;;0.75;0.60;;;7.60;99.90;;;;;;4997951;28;20042;-70
2022/06/02 00:52:47;;;;;;;1.75;1.65;;;7.60;99.90;;;;;;4980532;28;20447;-69
2022/06/02 00:58:25;;;;;;;0.50;0.50;;;7.60;99.90;;;;;;4980833;28;20046;-69
2022/06/02 01:01:00;;;;;;;0.60;0.60;;;7.50;99.90;;;;;;4977904;28;20344;-69
2022/06/02 01:03:42;;;;;;;0.52;0.52;;;7.50;99.90;;;;;;4978433;28;20444;-70
2022/06/02 01:06:20;;;;;;;0.40;0.40;;;7.40;99.90;;;;;;4978074;28;20057;-70
2022/06/02 01:09:16;;;;;;;0.93;0.93;;;7.40;99.90;;;;;;4978127;28;20062;-70
2022/06/02 01:11:56;;;;;;;0.57;0.57;;;7.30;99.90;;;;;;4960726;28;20043;-70
2022/06/02 01:14:41;;;;;;;0.50;0.50;;;7.30;99.90;;;;;;4962332;28;20047;-70
2022/06/02 01:17:09;;;;;;;0.50;0.50;;;7.30;99.90;;;;;;4979480;28;20372;-70
2022/06/02 01:19:50;;;;;;;0.50;0.50;;;7.30;99.90;;;;;;4979480;28;20056;-70
2022/06/02 01:22:37;;;;;;;0.50;0.50;;;7.20;99.90;;;;;;4980153;28;20363;-69
2022/06/02 01:25:37;;;;;;;0.80;0.80;;;7.20;99.90;;;;;;4980119;28;20050;-70
2022/06/02 01:28:37;;;;;;;0.82;0.60;;;7.30;99.90;;;;;;4980767;28;20058;-69
2022/06/02 01:31:25;;;;;;;0.70;0.70;;;7.20;99.90;;;;;;4946947;28;20124;-70
2022/06/02 01:34:18;;;;;;;0.70;0.70;;;7.20;99.90;;;;;;4974857;28;20054;-70
2022/06/02 01:37:16;;;;;;;0.50;0.50;;;7.20;99.90;;;;;;4947679;28;20460;-69
2022/06/02 01:40:26;;;;;;;0.50;0.50;;;7.10;99.90;;;;;;4977480;28;20055;-69
2022/06/02 01:43:28;;;;;;;0.50;0.50;;;7.10;99.90;;;;;;4977648;28;20043;-71
2022/06/02 01:46:24;;;;;;;0.63;0.63;;;7.10;99.90;;;;;;4977024;28;20057;-69
2022/06/02 01:49:08;;;;;;;0.60;0.60;;;7.10;99.90;;;;;;4979485;28;20467;-69
2022/06/02 01:52:05;;;;;;;1.25;1.15;;;7.10;99.90;;;;;;4979690;28;20427;-70
2022/06/02 01:54:50;;;;;;;0.50;0.50;;;7.10;99.90;;;;;;4979747;28;20081;-69
2022/06/02 01:57:34;;;;;;;0.50;0.50;;;7.00;99.90;;;;;;4996508;28;20362;-69
2022/06/02 02:00:08;;;;;;;0.50;0.50;;;7.00;99.90;;;;;;4966722;28;20060;-69
2022/06/02 02:02:43;;;;;;;0.57;0.57;;;7.00;99.90;;;;;;4960217;28;20051;-69
2022/06/02 02:05:51;;;;;;;0.85;0.85;;;6.90;99.90;;;;;;4960086;28;20117;-69
2022/06/02 02:08:52;;;;;;;0.65;0.65;;;6.90;99.90;;;;;;4959640;28;20061;-70
2022/06/02 02:11:54;;;;;;;0.60;0.60;;;6.90;99.90;;;;;;4930624;28;20059;-70
2022/06/02 02:14:46;;;;;;;2.20;0.95;;;6.90;99.90;;;;;;4959809;28;20136;-69
2022/06/02 02:17:12;;;;;;;0.50;0.50;;;6.90;99.90;;;;;;4973785;28;20069;-70
2022/06/02 02:20:06;;;;;;;0.60;0.60;;;6.80;99.90;;;;;;4959735;28;20459;-71
2022/06/02 02:22:46;;;;;;;0.50;0.50;;;6.80;99.90;;;;;;4976678;28;20047;-69
2022/06/02 02:25:28;;;;;;;0.60;0.60;;;6.80;99.90;;;;;;4959698;28;20038;-70
2022/06/02 02:28:06;;;;;;;0.50;0.50;;;6.80;99.90;;;;;;4959581;28;20228;-70
2022/06/02 02:30:44;;;;;;;0.50;0.50;;;6.80;99.90;;;;;;4975964;28;20077;-69
2022/06/02 02:33:37;;;;;;;1.95;0.88;;;6.70;99.90;;;;;;4976601;28;20372;-69
2022/06/02 02:36:29;;;;;;;0.50;0.50;;;6.70;99.90;;;;;;4959519;28;20053;-69
2022/06/02 02:39:16;;;;;;;0.50;0.50;;;6.70;99.90;;;;;;4976229;28;20061;-69
2022/06/02 02:41:46;;;;;;;0.60;0.60;;;6.60;99.90;;;;;;4976422;28;20069;-70
2022/06/02 02:44:25;;;;;;;0.65;0.65;;;6.60;99.90;;;;;;4959308;28;20051;-70
2022/06/02 02:47:19;;;;;;;0.52;0.52;;;6.60;99.90;;;;;;4959315;28;20093;-70
2022/06/02 02:49:54;;;;;;;0.60;0.60;;;6.50;99.90;;;;;;4959765;28;20451;-69
2022/06/02 02:52:22;;;;;;;0.60;0.60;;;6.60;99.90;;;;;;4976393;28;20050;-70
2022/06/02 02:55:18;;;;;;;0.73;0.73;;;6.60;99.90;;;;;;4959544;28;20062;-69
2022/06/02 02:58:21;;;;;;;0.40;0.40;;;6.60;99.90;;;;;;4958324;28;20062;-69
2022/06/02 03:00:59;;;;;;;0.75;0.73;;;6.60;99.90;;;;;;4976304;28;20478;-69
2022/06/02 03:04:07;;;;;;;0.50;0.50;;;6.60;99.90;;;;;;4961598;28;20054;-71
2022/06/02 03:06:37;;;;;;;0.50;0.50;;;6.60;99.90;;;;;;4995497;28;20423;-70
2022/06/02 03:09:09;;;;;;;0.50;0.50;;;6.70;99.90;;;;;;4962541;28;20054;-69
2022/06/02 03:11:41;;;;;;;0.60;0.60;;;6.60;99.90;;;;;;4995654;28;20061;-70
2022/06/02 03:14:28;;;;;;;1.05;0.88;;;6.60;99.90;;;;;;4995410;28;20204;-70
2022/06/02 03:17:11;;;;;;;0.50;0.50;;;6.60;99.90;;;;;;4995565;28;20065;-69
2022/06/02 03:19:44;;;;;;;0.50;0.50;;;6.60;99.90;;;;;;4980625;28;20051;-70
2022/06/02 03:22:41;;;;;;;0.85;0.70;;;6.60;99.90;;;;;;4958978;28;20290;-70
2022/06/02 03:25:16;;;;;;;1.25;0.60;;;6.60;99.90;;;;;;4958585;28;20083;-70
2022/06/02 03:28:06;;;;;;;0.50;0.50;;;6.60;99.90;;;;;;4958588;28;20043;-70
2022/06/02 03:31:05;;;;;;;0.55;0.55;;;6.60;99.90;;;;;;4958910;28;20522;-70
2022/06/02 03:33:40;;;;;;;0.70;0.70;;;6.70;99.90;;;;;;4983001;28;20069;-69
2022/06/02 03:36:42;;;;;;;0.45;0.45;;;6.70;99.90;;;;;;4995450;28;20042;-70
2022/06/02 03:39:15;;;;;;;0.55;0.55;;;6.70;99.90;;;;;;4977817;28;20443;-69
2022/06/02 03:41:59;;;;;;;0.90;0.70;;;6.70;99.90;;;;;;4981639;28;20053;-70
2022/06/02 03:44:43;;;;;;;0.82;0.82;;;6.80;99.90;;;;;;4981672;28;20374;-70
2022/06/02 03:47:38;;;;;;;;;;;6.80;99.90;;;;;;4982413;28;20042;-69
2022/06/02 03:50:15;;;;;;;0.60;0.60;;;6.90;99.90;;;;;;4884593;28;19942;-70
2022/06/02 03:52:58;;;;;;;0.73;0.73;;;6.90;99.90;;;;;;4962731;28;20410;-69
2022/06/02 03:55:35;;;;;;;0.60;0.60;;;6.90;99.90;;;;;;4962388;28;20050;-69
2022/06/02 03:58:21;;;;;;;0.57;0.57;;;7.00;99.90;;;;;;4962511;28;20117;-69
2022/06/02 04:00:56;;;;;;;1.17;0.98;;;7.00;99.90;;;;;;4962168;28;20050;-69
2022/06/02 04:03:53;;;;;;;0.55;0.55;;;7.10;99.90;;;;;;4962185;28;20360;-69
2022/06/02 04:06:29;;;;;;;0.50;0.50;;;7.10;99.90;;;;;;4962442;28;20452;-70
2022/06/02 04:09:02;;;;;;;0.70;0.70;;;7.10;99.90;;;;;;4981349;28;20463;-69
2022/06/02 04:13:37;;;;;;;0.50;0.50;;;7.20;99.90;;;;;;4971108;28;20106;-69
2022/06/02 04:14:39;;;;;;;0.93;0.93;;;7.20;99.90;;;;;;4961518;28;20069;-69
2022/06/02 04:17:26;;;;;;;0.45;0.45;;;7.30;99.90;;;;;;4971653;28;20097;-69
2022/06/02 04:23:32;;;;;;;0.50;0.50;;;7.40;99.90;;;;;;4980672;28;20066;-70
2022/06/02 04:26:27;;;;;;;0.40;0.40;;;7.50;99.90;;;;;;4997836;28;20038;-70
2022/06/02 04:29:12;;;;;;;0.88;0.88;;;7.50;99.90;;;;;;4966952;28;20426;-69
2022/06/02 04:32:06;;;;;;;0.50;0.50;;;7.60;99.90;;;;;;4973102;28;20114;-70
2022/06/02 04:35:18;;;;;;;0.60;0.60;;;7.60;99.90;;;;;;4966418;28;20105;-70
2022/06/02 04:38:09;;;;;;;0.50;0.50;;;7.60;99.90;;;;;;4908850;29;20040;-70
2022/06/02 04:40:42;;;;;;;0.95;0.80;;;7.80;99.90;;;;;;4898957;29;20059;-70
2022/06/02 04:43:14;;;;;;;0.50;0.50;;;7.90;99.90;;;;;;4959547;28;20059;-70
2022/06/02 04:46:01;;;;;;;0.60;0.60;;;8.10;99.90;;;;;;4995188;28;20156;-70
2022/06/02 04:48:49;;;;;;;0.50;0.50;;;8.20;99.90;;;;;;4982460;28;20058;-70
2022/06/02 04:51:34;;;;;;;0.50;0.50;;;8.30;99.90;;;;;;4961325;28;20117;-69
2022/06/02 04:54:17;;;;;;;0.63;0.60;;;8.30;99.90;;;;;;4961120;28;20065;-72
2022/06/02 04:56:58;;;;;;;0.60;0.60;;;8.40;99.90;;;;;;4962236;28;20053;-70
2022/06/02 04:59:46;;;;;;;0.40;0.40;;;8.50;99.90;;;;;;4979091;28;20050;-69
2022/06/02 05:02:27;;;;;;;0.60;0.60;;;8.60;99.90;;;;;;4979458;28;20447;-69
2022/06/02 05:05:20;;;;;;;0.40;0.40;;;8.70;99.90;;;;;;4985448;28;20050;-69
2022/06/02 05:08:04;;;;;;;1.20;1.05;;;8.80;99.90;;;;;;4995226;28;20034;-69
2022/06/02 05:10:43;;;;;;;1.27;1.02;;;8.90;99.90;;;;;;4999768;28;20126;-69
2022/06/02 05:13:37;;;;;;;1.25;0.98;;;9.50;99.90;;;;;;4978707;28;20053;-70
2022/06/02 05:16:24;;;;;;;0.60;0.60;;;11.30;99.90;;;;;;4999034;28;20085;-70
2022/06/02 05:19:08;;;;;;;0.50;0.50;;;13.10;99.90;;;;;;4982323;28;20130;-70
2022/06/02 05:21:40;;;;;;;0.80;0.68;;;14.90;99.90;;;;;;4979778;28;20050;-70
2022/06/02 05:24:14;;;;;;;1.52;1.05;;;16.20;99.90;;;;;;4996879;28;20375;-70
2022/06/02 05:27:02;;;;;;;0.63;0.63;;;17.40;99.90;;;;;;4979484;28;20061;-70
2022/06/02 05:29:31;;;;;;;0.55;0.55;;;18.20;99.90;;;;;;4983330;28;20045;-71
2022/06/02 05:32:21;;;;;;;0.50;0.50;;;18.90;99.90;;;;;;5015678;28;20060;-70
2022/06/02 05:35:04;;;;;;;0.47;0.47;;;19.50;99.90;;;;;;4999155;28;20087;-68
2022/06/02 05:37:30;;;;;;;;;;;20.20;99.90;;;;;;4999241;28;20050;-68
2022/06/02 05:40:16;;;;;;;0.50;0.50;;;20.90;99.90;;;;;;4998302;28;20037;-69
2022/06/02 05:43:17;;;;;;;0.32;0.32;;;21.10;99.90;;;;;;4998505;28;20057;-68
2022/06/02 05:45:46;;;;;;;0.35;0.35;;;21.20;99.90;;;;;;4982668;28;20049;-68
2022/06/02 05:48:23;;;;;;;1.55;0.55;;;21.80;99.90;;;;;;4998619;28;20352;-68
2022/06/02 05:51:05;;;;;;;0.30;0.30;;;22.00;99.50;;;;;;4998608;28;20061;-68
2022/06/02 05:53:43;;;;;;;0.30;0.30;;;22.30;99.90;;;;;;5015888;28;20045;-68
2022/06/02 05:56:39;;;;;;;0.20;0.20;;;22.40;99.90;;;;;;5015292;28;20422;-68
2022/06/02 05:59:13;;;;;;;0.40;0.30;;;22.70;98.40;;;;;;4997635;28;20053;-68
2022/06/02 06:01:59;;;;;;;0.20;0.20;;;22.90;98.00;;;;;;5015719;28;20085;-69
2022/06/02 06:04:55;;;;;;;0.68;0.47;;;23.30;97.90;;;;;;4997400;28;20050;-70
2022/06/02 06:07:30;;;;;;;0.20;0.20;;;23.50;97.10;;;;;;4983735;28;20069;-70
2022/06/02 06:10:15;;;;;;;0.20;0.20;;;24.10;97.60;;;;;;4953062;28;20042;-69
2022/06/02 06:13:14;;;;;;;0.30;0.30;;;23.80;95.60;;;;;;4962855;28;20062;-69
2022/06/02 06:16:10;;;;;;;0.30;0.30;;;24.30;95.70;;;;;;4977068;28;20084;-69
2022/06/02 06:18:51;;;;;;;0.88;0.88;;;24.70;93.50;;;;;;4966254;28;20055;-69
2022/06/02 06:21:52;;;;;;;0.20;0.20;;;24.30;92.00;;;;;;4975808;28;20122;-70
2022/06/02 06:24:24;;;;;;;0.43;0.30;;;25.00;93.30;;;;;;4959137;28;20051;-69
2022/06/02 06:27:26;;;;;;;0.33;0.30;;;25.00;93.30;;;;;;4958871;28;20093;-68
2022/06/02 06:29:52;;;;;;;0.28;0.28;;;24.80;92.20;;;;;;4976280;28;20301;-68
2022/06/02 06:32:36;;;;;;;0.20;0.20;;;24.50;92.20;;;;;;4976168;28;20054;-68
2022/06/02 06:35:30;;;;;;;0.10;0.10;;;24.60;91.50;;;;;;4966667;28;20169;-68
2022/06/02 06:38:06;;;;;;;1.05;0.40;;;25.20;93.80;;;;;;4994678;28;20050;-68
2022/06/02 06:40:53;;;;;;;0.15;0.15;;;25.50;89.40;;;;;;4970123;28;20114;-69
2022/06/02 06:43:55;;;;;;;0.20;0.20;;;25.40;91.60;;;;;;4965478;28;20089;-68
2022/06/02 06:46:25;;;;;;;0.20;0.20;;;25.60;92.70;;;;;;4975939;28;20057;-69
2022/06/02 06:49:02;;;;;;;10.85;0.73;;;25.50;91.40;;;;;;4975731;28;20057;-69
2022/06/02 06:51:36;;;;;;;1.17;0.95;;;25.70;92.00;;;;;;4975386;28;20057;-70
2022/06/02 06:54:20;;;;;;;1.83;1.42;;;25.30;88.40;;;;;;4975785;28;20098;-69
2022/06/02 06:57:19;;;;;;;0.20;0.20;;;25.50;90.60;;;;;;4958325;28;20042;-69
2022/06/02 07:00:19;;;;;;;0.20;0.20;;;24.80;91.60;;;;;;4974117;28;20471;-69
2022/06/02 07:03:08;;;;;;;0.10;0.10;;;24.40;90.30;;;;;;4970957;28;20053;-69
2022/06/02 07:05:48;;;;;;;0.13;0.13;;;23.10;90.80;;;;;;4994655;28;20112;-69
2022/06/02 07:08:53;;;;;;;0.20;0.20;;;23.50;91.30;;;;;;4993700;28;20055;-68
2022/06/02 07:14:27;;;;;;;0.20;0.20;;;23.60;91.70;;;;;;4986796;28;20054;-68
2022/06/02 07:16:57;;;;;;;0.10;0.10;;;22.70;91.30;;;;;;4986696;28;20347;-68
2022/06/02 07:19:42;;;;;;;0.28;0.28;;;22.90;91.90;;;;;;4985728;28;20197;-68
2022/06/02 07:22:43;;;;;;;0.20;0.20;;;23.20;90.70;;;;;;4987467;28;20046;-69
2022/06/02 07:25:18;;;;;;;0.20;0.20;;;22.20;90.90;;;;;;4984051;28;20117;-68
2022/06/02 07:27:56;;;;;;;0.17;0.17;;;21.50;92.50;;;;;;4981269;28;20046;-68
2022/06/02 07:30:56;;;;;;;0.30;0.30;;;21.90;93.90;;;;;;4979299;28;20360;-68
2022/06/02 07:33:50;;;;;;;0.30;0.30;;;21.20;92.90;;;;;;4966405;28;20038;-69
2022/06/02 07:36:30;;;;;;;0.30;0.30;;;20.50;94.30;;;;;;4998690;28;20050;-68
2022/06/02 07:39:04;;;;;;;0.22;0.22;;;20.10;98.10;;;;;;4979388;28;20061;-69
2022/06/02 07:41:38;;;;;;;0.30;0.30;;;20.40;96.00;;;;;;4978687;28;20093;-69
2022/06/02 07:44:24;;;;;;;0.28;0.28;;;21.20;94.30;;;;;;4979172;28;20054;-69
2022/06/02 07:47:26;;;;;;;0.20;0.20;;;22.20;93.20;;;;;;4983163;28;20039;-69
2022/06/02 07:50:09;;;;;;;0.10;0.10;;;23.00;94.00;;;;;;4986624;28;20150;-69
2022/06/02 07:52:45;;;;;;;0.20;0.20;;;23.20;92.60;;;;;;4967211;28;20047;-68
2022/06/02 07:55:20;;;;;;;0.30;0.30;;;22.70;93.40;;;;;;4978314;28;20047;-69
2022/06/02 07:57:51;;;;;;;0.63;0.63;;;22.10;94.40;;;;;;4971586;28;20053;-70
2022/06/02 08:00:28;;;;;;;0.20;0.20;;;21.80;94.20;;;;;;4961763;28;20109;-70
2022/06/02 08:02:56;;;;;;;0.20;0.20;;;21.90;94.00;;;;;;4978121;28;20047;-70
2022/06/02 08:05:43;;;;;;;0.20;0.20;;;22.20;93.90;;;;;;4961582;28;20066;-70
2022/06/02 08:08:31;;;;;;;1.05;0.30;;;21.60;93.10;;;;;;4961593;28;20050;-69
2022/06/02 08:11:15;;;;;;;0.20;0.20;;;21.60;94.10;;;;;;4962288;28;20047;-69
2022/06/02 08:14:22;;;;;;;0.20;0.20;;;22.70;94.00;;;;;;4968116;28;20042;-70
2022/06/02 08:16:58;;;;;;;0.30;0.30;;;22.70;92.90;;;;;;4978267;28;20350;-69
2022/06/02 08:19:29;;;;;;;0.20;0.20;;;21.70;92.90;;;;;;4967385;28;20471;-69
2022/06/02 08:21:59;;;;;;;0.20;0.20;;;20.90;93.10;;;;;;4987071;28;20406;-69
2022/06/02 08:24:25;;;;;;;0.20;0.20;;;20.20;94.10;;;;;;4968882;28;20474;-70
2022/06/02 08:27:15;;;;;;;0.20;0.20;;;19.80;97.00;;;;;;4978835;28;20084;-70
2022/06/02 08:29:53;;;;;;;0.20;0.20;;;20.70;96.70;;;;;;4980585;28;20118;-68
2022/06/02 08:32:28;;;;;;;0.20;0.20;;;21.30;95.30;;;;;;4997181;28;20054;-68
2022/06/02 08:35:10;;;;;;;0.10;0.10;;;21.10;95.60;;;;;;4979637;28;20068;-70
2022/06/02 08:37:41;;;;;;;0.20;0.20;;;20.80;96.60;;;;;;4960365;28;20062;-69
2022/06/02 08:40:24;;;;;;;0.30;0.30;;;20.00;94.30;;;;;;4978333;28;20058;-69
2022/06/02 08:43:24;;;;;;;0.35;0.35;;;19.60;95.70;;;;;;4961970;28;20046;-70
2022/06/02 08:46:03;;;;;;;0.22;0.22;;;19.90;98.20;;;;;;4962647;28;20238;-69
2022/06/02 08:48:34;;;;;;;0.25;0.25;;;19.90;97.30;;;;;;4968880;28;20047;-69
2022/06/02 08:51:22;;;;;;;0.20;0.20;;;20.00;97.00;;;;;;4974431;28;20467;-69
2022/06/02 08:54:07;;;;;;;0.20;0.20;;;21.00;96.20;;;;;;4977925;28;20476;-69
2022/06/02 08:57:09;;;;;;;0.20;0.20;;;21.90;95.90;;;;;;4977749;28;20046;-69
2022/06/02 08:59:53;;;;;;;0.20;0.20;;;22.60;94.00;;;;;;4977614;28;20125;-67
2022/06/02 09:02:50;;;;;;;0.30;0.30;;;22.40;92.90;;;;;;4985930;28;20059;-68
2022/06/02 09:05:36;;;;;;;0.20;0.20;;;21.60;94.00;;;;;;4979457;28;20050;-70
2022/06/02 09:08:07;;;;;;;0.50;0.38;;;20.60;94.10;;;;;;4996885;28;20370;-70
2022/06/02 09:11:07;;;;;;;0.20;0.20;;;20.40;95.60;;;;;;4996345;28;20104;-69
2022/06/02 09:13:42;;;;;;;0.45;0.45;;;20.80;93.30;;;;;;4976930;28;20051;-69
2022/06/02 09:16:34;;;;;;;0.20;0.20;;;21.30;95.80;;;;;;4989709;28;20133;-70
2022/06/02 09:19:28;;;;;;;0.30;0.30;;;21.00;93.90;;;;;;4986088;28;20356;-71
2022/06/02 09:22:14;;;;;;;0.25;0.25;;;20.20;95.30;;;;;;4974004;28;20058;-70
2022/06/02 09:24:49;;;;;;;0.10;0.10;;;19.80;96.40;;;;;;4977141;28;20057;-70
2022/06/02 09:27:35;;;;;;;0.20;0.20;;;19.90;97.20;;;;;;4983578;28;20121;-68
2022/06/02 09:30:07;;;;;;;0.22;0.22;;;20.00;95.50;;;;;;4977305;28;20050;-69
2022/06/02 09:32:51;;;;;;;0.28;0.28;;;20.10;99.60;;;;;;4977124;28;20046;-69
2022/06/02 09:35:22;;;;;;;0.20;0.20;;;20.20;95.90;;;;;;4977511;28;20082;-69
2022/06/02 09:37:51;;;;;;;0.20;0.20;;;20.10;97.80;;;;;;4978881;28;20042;-69
2022/06/02 09:40:41;;;;;;;0.20;0.20;;;19.80;97.90;;;;;;4979176;28;20473;-69
2022/06/02 09:43:43;;;;;;;0.17;0.17;;;19.70;97.90;;;;;;4977532;28;20050;-69
2022/06/02 09:46:30;;;;;;;0.40;0.40;;;20.00;98.30;;;;;;4977213;28;20082;-69
2022/06/02 09:49:11;;;;;;;0.20;0.20;;;20.40;97.20;;;;;;4977571;28;20049;-68
2022/06/02 09:52:13;;;;;;;0.30;0.30;;;20.50;96.50;;;;;;4995641;28;20122;-69
2022/06/02 09:55:20;;;;;;;0.55;0.43;;;20.80;96.60;;;;;;4962829;28;20092;-69
2022/06/02 09:58:23;;;;;;;0.40;0.40;;;20.70;94.30;;;;;;4941840;28;20060;-68
2022/06/02 10:01:03;;;;;;;0.32;0.32;;;20.70;95.60;;;;;;4970077;28;20050;-69
2022/06/02 10:03:38;;;;;;;0.40;0.40;;;20.80;96.50;;;;;;4978494;28;20046;-69
2022/06/02 10:06:40;;;;;;;0.20;0.20;;;21.40;97.40;;;;;;4977796;28;20050;-69
2022/06/02 10:09:40;;;;;;;1.90;0.40;;;21.60;96.40;;;;;;4962209;28;20451;-70
2022/06/02 10:12:55;;;;;;;0.20;0.20;;;21.10;94.70;;;;;;4976102;28;20057;-69
2022/06/02 10:15:27;;;;;;;3.25;0.80;;;20.50;94.60;;;;;;4975813;28;20057;-68
2022/06/02 10:18:11;;;;;;;1.15;1.05;;;20.00;95.40;;;;;;4942426;28;20050;-68
2022/06/02 10:20:56;;;;;;;0.20;0.20;;;19.70;95.80;;;;;;4959238;28;20042;-68
2022/06/02 10:24:00;;;;;;;0.38;0.38;;;19.60;96.40;;;;;;4966855;28;20129;-68
2022/06/02 10:26:41;;;;;;;0.25;0.25;;;19.50;96.30;;;;;;4976608;28;20054;-68
2022/06/02 10:29:40;;;;;;;0.30;0.30;;;19.50;96.60;;;;;;4959058;28;20324;-68
2022/06/02 10:32:24;;;;;;;0.30;0.30;;;19.30;95.90;;;;;;4958518;28;20082;-68
2022/06/02 10:35:09;;;;;;;0.30;0.30;;;19.50;96.50;;;;;;4970415;28;20109;-69
2022/06/02 10:37:59;;;;;;;0.20;0.20;;;19.40;95.40;;;;;;4959670;28;20057;-69
2022/06/02 10:41:02;;;;;;;1.15;0.55;;;19.20;95.40;;;;;;4989807;28;20571;-69
2022/06/02 10:43:55;;;;;;;0.43;0.40;;;19.40;96.30;;;;;;4976208;28;20046;-69
2022/06/02 10:46:35;;;;;;;0.20;0.20;;;19.90;95.90;;;;;;4976444;28;20050;-70
2022/06/02 10:49:26;;;;;;;0.52;0.50;;;20.20;96.00;;;;;;4976060;28;20047;-69
2022/06/02 10:52:30;;;;;;;0.40;0.40;;;20.40;96.50;;;;;;4958753;28;20046;-69
2022/06/02 10:55:24;;;;;;;0.20;0.20;;;20.20;96.20;;;;;;4958863;28;20050;-69
2022/06/02 10:58:08;;;;;;;0.20;0.20;;;20.30;96.00;;;;;;4988514;28;20042;-69
2022/06/02 11:00:52;;;;;;;0.40;0.40;;;20.50;97.10;;;;;;4994819;28;20050;-69
2022/06/02 11:03:23;;;;;;;;;;;20.70;96.50;;;;;;4994844;28;20470;-69
2022/06/02 11:06:26;;;;;;;0.25;0.25;;;20.70;97.60;;;;;;4977998;28;20281;-68
2022/06/02 11:09:31;;;;;;;0.20;0.20;;;20.90;96.70;;;;;;4977074;28;20375;-69
2022/06/02 11:12:22;;;;;;;0.28;0.28;;;21.00;96.20;;;;;;4975477;28;20086;-69
2022/06/02 11:15:38;;;;;;;0.20;0.20;;;20.80;95.60;;;;;;4979320;28;20057;-72
2022/06/02 11:18:41;;;;;;;0.30;0.30;;;20.70;94.80;;;;;;4945221;28;20136;-68
2022/06/02 11:21:35;;;;;;;0.30;0.30;;;20.30;95.50;;;;;;4958076;28;20065;-69
2022/06/02 11:24:19;;;;;;;0.30;0.30;;;20.50;95.20;;;;;;4975190;28;20066;-69
2022/06/02 11:26:56;;;;;;;0.20;0.20;;;20.90;97.00;;;;;;4970857;28;20475;-69
2022/06/02 11:29:37;;;;;;;0.25;0.25;;;20.90;95.70;;;;;;4977140;28;20415;-69
2022/06/02 11:32:11;;;;;;;0.20;0.20;;;21.20;94.50;;;;;;4958569;28;20110;-70
2022/06/02 11:34:53;;;;;;;0.50;0.43;;;21.50;96.20;;;;;;4963006;28;20050;-70
2022/06/02 11:38:02;;;;;;;0.20;0.20;;;21.80;96.50;;;;;;4978026;28;20042;-70
2022/06/02 11:40:58;;;;;;;0.20;0.20;;;21.90;95.10;;;;;;4976642;28;20061;-70
2022/06/02 11:43:53;;;;;;;0.20;0.20;;;22.00;95.00;;;;;;4961048;28;20363;-70
2022/06/02 11:47:03;;;;;;;0.20;0.20;;;22.20;94.70;;;;;;4974598;28;20065;-70
2022/06/02 11:49:51;;;;;;;1.88;0.45;;;22.40;95.10;;;;;;4888056;29;20095;-70
2022/06/02 11:52:38;;;;;;;0.20;0.20;;;22.40;93.00;;;;;;4875703;29;20075;-70
2022/06/02 11:55:34;;;;;;;0.28;0.28;;;22.80;93.90;;;;;;4939515;28;20054;-70
2022/06/02 11:58:15;;;;;;;0.20;0.20;;;22.10;91.20;;;;;;4963919;28;20186;-70
2022/06/02 12:00:46;;;;;;;0.20;0.20;;;22.10;92.30;;;;;;4968123;28;20112;-71
2022/06/02 12:03:50;;;;;;;0.20;0.20;;;22.20;93.90;;;;;;4980590;28;20116;-70
2022/06/02 12:06:52;;;;;;;0.30;0.30;;;22.30;93.20;;;;;;4964018;28;20133;-70
2022/06/02 12:09:51;;;;;;;0.20;0.20;;;22.60;91.50;;;;;;4961438;28;20051;-70
2022/06/02 12:12:46;;;;;;;0.28;0.28;;;22.80;93.70;;;;;;4978092;28;20371;-71
2022/06/02 12:15:57;;;;;;;0.20;0.20;;;23.10;93.60;;;;;;4978527;28;20043;-70
2022/06/02 12:18:56;;;;;;;0.28;0.28;;;22.90;91.90;;;;;;4960709;28;20090;-71
2022/06/02 12:22:09;;;;;;;0.25;0.25;;;23.00;93.40;;;;;;4960619;28;20062;-70
2022/06/02 12:24:44;;;;;;;0.57;0.57;;;23.00;93.00;;;;;;4910753;29;20052;-70
2022/06/02 12:27:24;;;;;;;0.30;0.30;;;22.70;91.10;;;;;;4903036;29;20096;-69
2022/06/02 12:29:55;;;;;;;0.20;0.20;;;22.30;92.10;;;;;;4968732;28;20467;-69
2022/06/02 12:32:44;;;;;;;0.55;0.50;;;22.00;91.60;;;;;;4966734;28;20529;-69
2022/06/02 12:35:32;;;;;;;0.30;0.30;;;21.80;91.50;;;;;;4960937;28;20050;-70
2022/06/02 12:38:03;;;;;;;0.20;0.20;;;21.50;91.90;;;;;;4978909;28;20057;-71
2022/06/02 12:40:56;;;;;;;0.20;0.20;;;21.70;91.90;;;;;;4977956;28;20438;-70
2022/06/02 12:43:41;;;;;;;0.20;0.20;;;21.60;92.50;;;;;;4978831;28;20082;-70
2022/06/02 12:46:25;;;;;;;0.20;0.20;;;21.60;92.80;;;;;;4962465;28;20217;-69
2022/06/02 12:49:18;;;;;;;0.25;0.25;;;21.60;92.70;;;;;;4982992;28;20050;-69
2022/06/02 12:52:15;;;;;;;0.20;0.20;;;21.60;92.30;;;;;;4980249;28;20129;-71
2022/06/02 12:54:59;;;;;;;0.20;0.20;;;21.50;93.20;;;;;;4968575;28;20038;-70
2022/06/02 12:57:50;;;;;;;0.55;0.47;;;21.20;93.50;;;;;;4977595;28;20055;-68
2022/06/02 13:00:33;;;;;;;0.20;0.20;;;21.00;93.60;;;;;;4957093;28;20054;-69
2022/06/02 13:03:01;;;;;;;0.33;0.20;;;20.90;93.90;;;;;;4980342;28;20090;-69
2022/06/02 13:05:53;;;;;;;0.38;0.38;;;20.80;93.90;;;;;;4986654;28;20601;-68
2022/06/02 13:08:28;;;;;;;0.20;0.20;;;21.20;94.30;;;;;;4960296;28;20460;-70
2022/06/02 13:11:03;;;;;;;0.30;0.30;;;21.50;93.10;;;;;;4960570;28;20406;-72
2022/06/02 13:13:48;;;;;;;1.00;0.40;;;21.70;92.70;;;;;;4996114;28;20052;-70
2022/06/02 13:16:32;;;;;;;0.20;0.20;;;21.80;92.50;;;;;;4969210;28;20395;-70
2022/06/02 13:19:10;;;;;;;0.20;0.20;;;21.70;93.80;;;;;;4975084;28;20058;-70
2022/06/02 13:22:05;;;;;;;0.20;0.20;;;21.90;92.90;;;;;;4978419;28;20059;-69
2022/06/02 13:25:03;;;;;;;0.40;0.40;;;22.00;92.40;;;;;;4979649;28;20050;-70
2022/06/02 13:27:30;;;;;;;0.40;0.40;;;21.90;91.50;;;;;;4960012;28;20121;-70
2022/06/02 13:30:24;;;;;;;0.30;0.30;;;21.60;93.40;;;;;;4960402;28;20059;-70
2022/06/02 13:33:25;;;;;;;0.30;0.30;;;21.80;93.60;;;;;;4988233;28;20374;-69
2022/06/02 13:36:15;;;;;;;0.20;0.20;;;22.00;93.60;;;;;;4972220;28;20069;-69
2022/06/02 13:39:05;;;;;;;0.25;0.25;;;22.10;91.50;;;;;;4979029;28;20421;-68
2022/06/02 13:42:00;;;;;;;0.30;0.30;;;21.60;93.00;;;;;;4977939;28;20124;-69
2022/06/02 13:44:43;;;;;;;0.32;0.22;;;21.60;93.70;;;;;;4954266;28;20142;-68
2022/06/02 13:47:30;;;;;;;4.43;0.90;;;21.80;92.90;;;;;;4979218;28;20133;-69
2022/06/02 13:50:23;;;;;;;0.10;0.10;;;21.50;92.20;;;;;;4979558;28;20362;-70
2022/06/02 13:53:22;;;;;;;0.20;0.20;;;21.30;92.50;;;;;;4979045;28;20065;-69
2022/06/02 13:59:01;;;;;;;0.40;0.40;;;21.50;93.70;;;;;;4995155;28;20042;-69
2022/06/02 14:01:27;;;;;;;0.32;0.30;;;21.50;92.00;;;;;;4978830;28;20375;-69
2022/06/02 14:04:19;;;;;;;0.55;0.52;;;21.70;91.60;;;;;;4978895;28;20054;-69
2022/06/02 14:06:54;;;;;;;1.13;1.02;;;21.50;92.90;;;;;;4979112;28;20121;-69
2022/06/02 14:09:48;;;;;;;0.20;0.20;;;21.70;92.70;;;;;;4995746;28;20367;-70
2022/06/02 14:12:16;;;;;;;0.80;0.38;;;21.60;91.60;;;;;;4995193;28;20054;-69
2022/06/02 14:15:02;;;;;;;0.20;0.20;;;21.50;92.50;;;;;;4982774;28;20054;-69
2022/06/02 14:17:38;;;;;;;0.20;0.20;;;21.60;93.90;;;;;;4958281;28;20148;-70
2022/06/02 14:20:20;;;;;;;0.52;0.40;;;21.70;92.50;;;;;;4976316;28;20061;-69
2022/06/02 14:22:46;;;;;;;0.20;0.20;;;21.70;92.20;;;;;;4975982;28;20138;-70
2022/06/02 14:25:20;;;;;;;0.20;0.20;;;21.50;92.90;;;;;;4958599;28;20134;-69
2022/06/02 14:28:02;;;;;;;0.20;0.20;;;21.50;92.60;;;;;;4959251;28;20371;-70
2022/06/02 14:30:35;;;;;;;0.20;0.20;;;21.60;93.00;;;;;;4958939;28;20046;-69
2022/06/02 14:33:37;;;;;;;0.20;0.20;;;21.60;92.60;;;;;;4959576;28;20472;-69
2022/06/02 14:36:21;;;;;;;0.20;0.20;;;21.80;94.00;;;;;;4959356;28;20054;-71
2022/06/02 14:39:09;;;;;;;0.20;0.20;;;22.10;92.40;;;;;;4959176;28;20055;-69